Wetterdaten für den Flughafen Lübeck Blankensee


ADDS - METARS form results Aviation Digital Data Service (ADDS) Output produced by METARs form (0923 UTC 13 December 2018)
found at http://www.aviationweather.gov/metar/data/
 
EDDH 130850Z 06005KT 9999 SCT007 SCT009 01/M01 Q1026 NOSIG
TAF COR EDDH 130531Z 1306/1412 06006KT 9999 SCT020 TEMPO 1306/1310 BKN006 PROB30 TEMPO 1306/1310 2500 BCFG PROB30 TEMPO 1312/1319 BKN012 BECMG 1319/1321 BKN012 TEMPO 1320/1410 BKN006

Nord: Hamburg, Lübeck
Ost: Schwerin, Rostock
Süd: Hannover
West: Bremen, Nordhloz

Copyright © 2016 Flugschule Hohensee